Warrington, PA (18976)

11:59 PM EST on January 29, 2015 (GMT -0500)
Warrington | Change Station
CLOSE
Current Station
Personal Weather Station
Location: Warrington, PA
Elevation: 420 ft
Nearby Weather Stations
Active Advisory: Special Statement Active Notice: Public Information Statement

Elev 420 ft 40.25 °N, 75.12 °W | Updated 3 seconds ago

Snow
Snow
28.8 °F
Feels Like 29 °F
N
0.0
Wind Variable Wind from South
Gusts 2.0 mph

Today
High -- | Low -- °F
--% Chance of Precip.
Yesterday
High -- | Low -- °F
Precip. -- in
7:12 AM 5:15 PM
Waxing Gibbous, 80% visible
Pressure 29.97 in
Visibility 8.0 miles
Clouds Overcast 4200 ft
Windchill 29 °F
Dew Point 25 °F
Humidity 86%
Rainfall 0.00 in
Snow Depth Not available.
UV 0.0 out of 12
Pollen .10 out of 12
Air Quality Not available.
Flu Activity Not available.
METAR KDYL 300454Z AUTO VRB03KT 8SM -SN OVC042 M03/M04 A2994 RMK AO2 SNB0358 SLP148 P0000 T10281039 410111128

More Conditions Fewer Conditions

Pressure 29.97 in
Visibility 8.0 miles
Clouds Overcast 4200 ft
Windchill 29 °F
Dew Point 25 °F
Humidity 86%
Rainfall 0.00 in
Snow Depth Not available.
UV 0.0 out of 12
Pollen .10 out of 12
Air Quality Not available.
Flu Activity Not available.
METAR KDYL 300454Z AUTO VRB03KT 8SM -SN OVC042 M03/M04 A2994 RMK AO2 SNB0358 SLP148 P0000 T10281039 410111128

More Conditions Fewer Conditions

Nowcast | as of 10:52 PM EST on January 29, 2015

Areas of snow may lower visibilities and create a few areas of slick travel overnight. The most snow will occur across northeast Pennsylvania and the northern half of New Jersey. Use caution when traveling overnight.

×

10-Day Weather Forecast

Almanac

Astronomy

Jan. 29, 2015 Rise Set
Actual Time
Civil Twilight
Nautical Twilight
Astronomical Twilight
Moon
Length of Visible Light
Length of Day
Tomorrow will be .
, % of the Moon is Illuminated

Today's Extremes

State Highs State Lows

Community

WunderPhotos

Upload Photos

1,791,712 photos uploaded!

WunderBlogs® & News

Nearby

Air Quality

  Air Quality AQ Index Pollutant
Not available.

Snow Depth

Station Depth Elevation

Earthquake Activity

City Distance Mag. Time & Date
Minimum magnitude displayed is 2.5.

Coastal Water Temperatures

Place Temperature

Nearby Weather Stations